createdAt,value
2019-02-21T00:00:24.719Z,41.27
2019-02-21T00:05:32.851Z,38.97
2019-02-21T00:10:40.024Z,42.97
2019-02-21T00:15:47.079Z,43.37
2019-02-21T00:20:54.047Z,44.93
2019-02-21T00:26:01.184Z,42.83
2019-02-21T00:31:08.360Z,40.40
2019-02-21T00:36:33.687Z,38.40
2019-02-21T00:41:41.513Z,35.57
2019-02-21T00:46:48.346Z,37.30
2019-02-21T00:51:55.901Z,39.97
2019-02-21T00:57:03.004Z,34.63
2019-02-21T01:02:10.351Z,35.83
2019-02-21T01:07:17.463Z,39.37
2019-02-21T01:12:23.608Z,38.17
2019-02-21T01:17:29.650Z,39.97
2019-02-21T01:22:35.681Z,36.10
2019-02-21T01:27:41.745Z,36.17
2019-02-21T01:32:48.764Z,46.13
2019-02-21T01:37:56.585Z,45.87
2019-02-21T01:43:03.613Z,38.47
2019-02-21T01:48:10.544Z,37.90
2019-02-21T01:53:17.042Z,43.23
2019-02-21T01:58:23.056Z,40.53
2019-02-21T02:03:29.359Z,42.13
2019-02-21T02:08:36.984Z,44.13
2019-02-21T02:13:43.057Z,42.80
2019-02-21T02:18:51.041Z,46.67
2019-02-21T02:24:19.287Z,39.83
2019-02-21T02:29:25.386Z,41.93
2019-02-21T02:34:32.281Z,41.73
2019-02-21T02:39:51.076Z,41.13
2019-02-21T02:44:57.596Z,48.80
2019-02-21T02:50:04.680Z,44.50
2019-02-21T02:55:11.285Z,39.57
2019-02-21T03:00:18.108Z,45.33
2019-02-21T03:05:24.172Z,44.43
2019-02-21T03:10:30.226Z,49.67
2019-02-21T03:15:36.339Z,44.40
2019-02-21T03:20:43.195Z,44.03
2019-02-21T03:25:51.362Z,34.73
2019-02-21T03:30:58.683Z,49.07
2019-02-21T03:36:05.302Z,42.83
2019-02-21T03:41:12.503Z,42.27
2019-02-21T03:46:19.193Z,46.67
2019-02-21T03:51:25.291Z,44.67
2019-02-21T03:56:31.272Z,49.77
2019-02-21T04:01:37.162Z,50.13
2019-02-21T04:06:44.282Z,45.23
2019-02-21T04:11:51.191Z,48.03
2019-02-21T04:16:58.297Z,46.97
2019-02-21T04:22:05.189Z,43.93
2019-02-21T04:27:11.959Z,41.60
2019-02-21T04:32:19.149Z,52.17
2019-02-21T04:37:25.036Z,41.67
2019-02-21T04:42:30.983Z,41.03
2019-02-21T04:47:36.805Z,44.13
2019-02-21T04:52:42.731Z,43.83
2019-02-21T04:57:48.662Z,48.23
2019-02-21T05:02:55.453Z,42.50
2019-02-21T05:08:02.260Z,49.47
2019-02-21T05:13:08.732Z,43.20
2019-02-21T05:18:16.842Z,47.73
2019-02-21T05:23:23.194Z,43.43
2019-02-21T05:28:32.723Z,45.17
2019-02-21T05:33:53.459Z,49.90
2019-02-21T05:39:07.650Z,43.73
2019-02-21T05:44:24.650Z,51.43
2019-02-21T05:49:32.704Z,43.63
2019-02-21T05:54:40.848Z,44.47
2019-02-21T05:59:59.178Z,47.83
2019-02-21T06:05:25.989Z,46.37
2019-02-21T06:21:27.682Z,38.60
2019-02-21T06:26:39.629Z,49.97
2019-02-21T06:31:46.048Z,46.07
2019-02-21T06:36:52.858Z,45.73
2019-02-21T06:42:00.324Z,48.90
2019-02-21T06:47:07.136Z,51.83
2019-02-21T06:52:15.760Z,78.60
2019-02-21T06:57:22.867Z,56.43
2019-02-21T07:02:28.739Z,49.73
2019-02-21T07:07:34.677Z,51.67
2019-02-21T07:12:40.604Z,49.87
2019-02-21T07:17:49.306Z,50.80
2019-02-21T07:22:54.861Z,54.00
2019-02-21T07:28:11.160Z,55.33
2019-02-21T07:33:10.074Z,52.23
2019-02-21T07:38:17.315Z,46.13
2019-02-21T07:43:24.924Z,54.73
2019-02-21T07:48:31.726Z,53.40
2019-02-21T07:53:37.624Z,46.80
2019-02-21T07:58:44.147Z,54.47
2019-02-21T08:03:50.539Z,55.80
2019-02-21T08:08:57.527Z,55.60
2019-02-21T08:14:04.489Z,49.80
2019-02-21T08:19:11.141Z,51.90
2019-02-21T08:24:17.648Z,55.57
2019-02-21T08:29:23.568Z,47.10
2019-02-21T08:34:43.462Z,53.00
2019-02-21T08:39:50.294Z,49.10
2019-02-21T08:44:57.181Z,55.47
2019-02-21T08:50:04.868Z,50.40
2019-02-21T08:55:12.097Z,49.13
2019-02-21T09:00:37.413Z,49.17
2019-02-21T09:05:45.517Z,46.67
2019-02-21T09:11:10.766Z,58.83
2019-02-21T09:16:18.013Z,48.67
2019-02-21T09:21:23.937Z,44.50
2019-02-21T09:26:29.831Z,46.77
2019-02-21T09:31:35.860Z,42.57
2019-02-21T09:36:42.749Z,44.80
2019-02-21T09:41:49.542Z,45.30
2019-02-21T09:46:56.036Z,47.73
2019-02-21T09:52:02.465Z,42.63
2019-02-21T09:57:13.550Z,42.17
2019-02-21T10:02:37.400Z,45.03
2019-02-21T10:07:44.242Z,42.47
2019-02-21T10:12:51.214Z,45.93
2019-02-21T10:17:58.464Z,44.23
2019-02-21T10:23:05.491Z,42.27
2019-02-21T10:28:11.956Z,46.40
2019-02-21T10:33:18.358Z,47.60
2019-02-21T10:38:24.271Z,43.70
2019-02-21T10:43:30.205Z,39.37
2019-02-21T10:48:38.143Z,43.23
2019-02-21T10:53:45.004Z,38.90
2019-02-21T10:58:52.135Z,36.47
2019-02-21T11:03:59.085Z,35.10
2019-02-21T11:09:09.716Z,41.00
2019-02-21T11:14:16.520Z,38.20
2019-02-21T11:19:22.814Z,36.00
2019-02-21T11:24:29.724Z,38.77
2019-02-21T11:29:35.626Z,39.50
2019-02-21T11:34:42.469Z,34.77
2019-02-21T11:39:50.655Z,34.37
2019-02-21T11:44:57.343Z,36.23
2019-02-21T11:50:05.660Z,32.27
2019-02-21T11:55:24.194Z,36.77
2019-02-21T12:00:31.700Z,35.83
2019-02-21T12:05:37.625Z,30.90
2019-02-21T12:10:46.007Z,36.50
2019-02-21T12:15:53.118Z,35.57
2019-02-21T12:21:00.158Z,34.33
2019-02-21T12:26:06.969Z,33.47
2019-02-21T12:31:13.668Z,36.03
2019-02-21T12:36:20.505Z,33.73
2019-02-21T12:41:26.378Z,31.03
2019-02-21T12:46:32.425Z,32.07
2019-02-21T12:51:38.356Z,34.80
2019-02-21T12:56:45.141Z,38.00
2019-02-21T13:01:51.910Z,37.20
2019-02-21T13:06:59.026Z,34.57
2019-02-21T13:12:07.039Z,37.87
2019-02-21T13:17:23.538Z,37.63
2019-02-21T13:22:29.523Z,43.20
2019-02-21T13:27:35.586Z,38.83
2019-02-21T13:32:41.728Z,47.80
2019-02-21T13:37:47.757Z,40.40
2019-02-21T13:42:54.052Z,39.63
2019-02-21T13:48:01.086Z,44.33
2019-02-21T13:53:07.954Z,37.03
2019-02-21T13:58:14.755Z,35.93
2019-02-21T14:03:22.875Z,38.33
2019-02-21T14:08:28.836Z,34.47
2019-02-21T14:13:34.719Z,39.00
2019-02-21T14:18:41.512Z,36.93
2019-02-21T14:23:48.003Z,34.77
2019-02-21T14:28:55.992Z,40.00
2019-02-21T14:34:02.592Z,37.17
2019-02-21T14:39:10.669Z,34.43
2019-02-21T14:44:17.546Z,31.90
2019-02-21T14:49:25.762Z,28.93
2019-02-21T14:54:32.479Z,30.60
2019-02-21T14:59:44.642Z,32.20
2019-02-21T15:04:50.474Z,37.30
2019-02-21T15:09:56.999Z,34.33
2019-02-21T15:15:05.235Z,30.63
2019-02-21T15:20:15.228Z,35.03
2019-02-21T15:25:22.544Z,33.30
2019-02-21T15:30:28.650Z,28.50
2019-02-21T15:35:34.744Z,29.40
2019-02-21T15:40:43.451Z,32.67
2019-02-21T15:45:50.477Z,36.90
2019-02-21T15:50:58.583Z,35.50
2019-02-21T15:56:05.765Z,31.90
2019-02-21T16:01:14.244Z,32.70
2019-02-21T16:06:33.081Z,35.80
2019-02-21T16:11:40.435Z,32.90
2019-02-21T16:16:47.831Z,31.97
2019-02-21T16:21:54.861Z,38.07
2019-02-21T16:27:02.103Z,33.97
2019-02-21T16:32:08.775Z,31.47
2019-02-21T16:37:15.550Z,34.33
2019-02-21T16:42:23.031Z,35.77
2019-02-21T16:47:29.538Z,31.90
2019-02-21T16:52:36.872Z,33.07
2019-02-21T16:57:43.621Z,34.37
2019-02-21T17:02:50.375Z,34.50
2019-02-21T17:07:56.967Z,31.00
2019-02-21T17:13:04.585Z,33.93
2019-02-21T17:18:11.971Z,31.10
2019-02-21T17:23:22.867Z,29.20
2019-02-21T17:28:27.241Z,30.90
2019-02-21T17:33:33.313Z,31.50
2019-02-21T17:38:42.506Z,32.93
2019-02-21T17:43:49.275Z,33.33
2019-02-21T17:48:56.174Z,34.83
2019-02-21T17:54:02.863Z,41.30
2019-02-21T17:59:09.676Z,43.53
2019-02-21T18:04:16.557Z,40.17
2019-02-21T18:09:24.057Z,43.43
2019-02-21T18:14:31.871Z,44.43
2019-02-21T18:19:38.389Z,47.07
2019-02-21T18:24:45.894Z,41.90
2019-02-21T18:29:53.424Z,50.00
2019-02-21T18:35:00.850Z,48.70
2019-02-21T18:40:17.216Z,52.17
2019-02-21T18:45:21.326Z,50.90
2019-02-21T18:50:37.680Z,63.50
2019-02-21T18:55:35.625Z,54.77
2019-02-21T19:00:42.414Z,59.00
2019-02-21T19:05:49.216Z,58.57
2019-02-21T19:10:56.909Z,62.00
2019-02-21T19:16:05.565Z,58.50
2019-02-21T19:21:13.857Z,57.50
2019-02-21T19:26:33.466Z,62.17
2019-02-21T19:31:39.657Z,61.97
2019-02-21T19:36:46.954Z,64.03
2019-02-21T19:41:53.847Z,73.67
2019-02-21T19:47:01.859Z,67.80
2019-02-21T19:52:09.742Z,64.17
2019-02-21T19:57:16.655Z,62.50
2019-02-21T20:02:23.802Z,66.93
2019-02-21T20:07:32.733Z,69.60
2019-02-21T20:12:41.939Z,59.50
2019-02-21T20:18:12.804Z,65.70
2019-02-21T20:23:24.032Z,71.57
2019-02-21T20:28:31.721Z,71.87
2019-02-21T20:33:38.175Z,67.93
2019-02-21T20:38:46.392Z,69.03
2019-02-21T20:43:55.013Z,66.37
2019-02-21T20:49:02.424Z,74.60
2019-02-21T20:54:09.741Z,72.07
2019-02-21T20:59:18.429Z,87.33
2019-02-21T21:04:24.871Z,87.37
2019-02-21T21:09:31.394Z,79.30
2019-02-21T21:14:38.438Z,83.63
2019-02-21T21:19:45.184Z,87.10
2019-02-21T21:24:51.871Z,98.40
2019-02-21T21:29:59.223Z,94.47
2019-02-21T21:35:11.015Z,85.83
2019-02-21T21:40:19.637Z,102.60
2019-02-21T21:45:26.325Z,109.00
2019-02-21T21:50:32.849Z,105.13
2019-02-21T21:55:39.304Z,100.33
2019-02-21T22:00:46.986Z,115.17
2019-02-21T22:05:53.724Z,103.87
2019-02-21T22:11:01.494Z,113.10
2019-02-21T22:16:09.431Z,103.40
2019-02-21T22:21:16.141Z,116.07
2019-02-21T22:26:23.220Z,126.77
2019-02-21T22:31:29.263Z,133.03
2019-02-21T22:36:36.646Z,118.13
2019-02-21T22:42:02.841Z,124.40
2019-02-21T22:47:09.876Z,128.80
2019-02-21T22:52:17.985Z,119.73
2019-02-21T22:57:24.056Z,127.37
2019-02-21T23:02:33.243Z,130.63
2019-02-21T23:07:41.015Z,137.33
2019-02-21T23:12:47.807Z,139.10
2019-02-21T23:17:54.415Z,129.17
2019-02-21T23:23:01.070Z,128.60
2019-02-21T23:28:07.673Z,132.93
2019-02-21T23:33:14.273Z,140.20
2019-02-21T23:38:22.283Z,145.30
2019-02-21T23:43:28.387Z,145.20
2019-02-21T23:48:35.227Z,147.83
2019-02-21T23:53:43.651Z,144.40
2019-02-21T23:58:50.874Z,134.43
